Time,TemperatureF,DewpointF,PressureIn,WindDirection,WindDirectionDegrees,WindSpeedMPH,WindSpeedGustMPH,Humidity,HourlyPrecipIn,Conditions,Clouds,dailyrainin,SoftwareType,DateUTC
2013-08-17 00:02:00,73.9,66.2,28.60,East,90,1.0,9.0,77,0.00,,,0.00,meteohub,2013-08-17 05:02:00,
2013-08-17 00:07:00,74.1,66.4,28.60,SE,135,1.0,9.0,77,0.00,,,0.00,meteohub,2013-08-17 05:07:00,
2013-08-17 00:12:00,73.8,66.4,28.59,East,90,1.0,9.0,78,0.00,,,0.00,meteohub,2013-08-17 05:12:00,
2013-08-17 00:17:00,73.8,66.4,28.60,NE,45,4.0,9.0,78,0.00,,,0.00,meteohub,2013-08-17 05:17:00,
2013-08-17 00:22:00,73.8,66.9,28.60,SE,135,6.0,7.0,79,0.00,,,0.00,meteohub,2013-08-17 05:22:00,
2013-08-17 00:27:00,73.4,66.6,28.60,East,90,1.0,9.0,79,0.00,,,0.00,meteohub,2013-08-17 05:27:00,
2013-08-17 00:32:00,73.2,66.7,28.60,East,90,4.0,9.0,80,0.00,,,0.00,meteohub,2013-08-17 05:32:00,
2013-08-17 00:37:00,73.0,66.6,28.60,SE,135,6.0,10.0,80,0.00,,,0.00,meteohub,2013-08-17 05:37:00,
2013-08-17 00:42:00,72.9,66.4,28.60,NE,45,1.0,10.0,80,0.00,,,0.00,meteohub,2013-08-17 05:42:00,
2013-08-17 00:47:00,73.2,67.1,28.60,East,90,1.0,10.0,81,0.00,,,0.00,meteohub,2013-08-17 05:47:00,
2013-08-17 00:52:00,72.7,66.6,28.60,NE,45,4.0,10.0,81,0.00,,,0.00,meteohub,2013-08-17 05:52:00,
2013-08-17 00:57:00,72.7,66.6,28.60,East,90,7.0,10.0,81,0.00,,,0.00,meteohub,2013-08-17 05:57:00,
2013-08-17 01:02:00,72.9,67.1,28.60,East,90,7.0,11.0,82,0.00,,,0.00,meteohub,2013-08-17 06:02:00,
2013-08-17 01:07:00,72.3,66.6,28.59,SE,135,8.0,11.0,82,0.00,,,0.00,meteohub,2013-08-17 06:07:00,
2013-08-17 01:12:00,72.5,66.7,28.60,North,0,6.0,11.0,82,0.00,,,0.00,meteohub,2013-08-17 06:12:00,
2013-08-17 01:17:00,72.3,66.6,28.60,NNW,338,6.0,10.0,82,0.00,,,0.00,meteohub,2013-08-17 06:17:00,
2013-08-17 01:22:00,72.3,66.9,28.60,East,90,5.0,11.0,83,0.00,,,0.00,meteohub,2013-08-17 06:22:00,
2013-08-17 01:27:00,72.1,66.7,28.59,NE,45,2.0,11.0,83,0.00,,,0.00,meteohub,2013-08-17 06:27:00,
2013-08-17 01:32:00,72.1,66.7,28.60,SE,135,3.0,11.0,83,0.00,,,0.00,meteohub,2013-08-17 06:32:00,
2013-08-17 01:37:00,72.0,66.6,28.60,East,90,7.0,9.0,83,0.00,,,0.00,meteohub,2013-08-17 06:37:00,
2013-08-17 01:42:00,71.8,66.4,28.60,SE,135,6.0,8.0,83,0.00,,,0.00,meteohub,2013-08-17 06:42:00,
2013-08-17 01:47:00,72.0,66.6,28.60,East,90,1.0,11.0,83,0.00,,,0.00,meteohub,2013-08-17 06:47:00,
2013-08-17 01:52:00,71.8,66.4,28.60,East,90,1.0,11.0,83,0.00,,,0.00,meteohub,2013-08-17 06:52:00,
2013-08-17 01:57:00,71.8,66.4,28.60,East,90,10.0,11.0,83,0.00,,,0.00,meteohub,2013-08-17 06:57:00,
2013-08-17 02:02:00,71.6,66.6,28.60,East,90,2.0,10.0,84,0.00,,,0.00,meteohub,2013-08-17 07:02:00,
2013-08-17 02:07:00,71.4,66.4,28.61,East,90,3.0,10.0,84,0.00,,,0.00,meteohub,2013-08-17 07:07:00,
2013-08-17 02:12:00,71.4,66.4,28.61,SE,135,1.0,10.0,84,0.00,,,0.00,meteohub,2013-08-17 07:12:00,
2013-08-17 02:17:00,71.4,66.4,28.61,East,90,1.0,8.0,84,0.00,,,0.00,meteohub,2013-08-17 07:17:00,
2013-08-17 02:22:00,71.4,66.4,28.61,East,90,1.0,8.0,84,0.00,,,0.00,meteohub,2013-08-17 07:22:00,
2013-08-17 02:27:00,71.1,66.4,28.61,ESE,113,1.0,2.0,85,0.00,,,0.00,meteohub,2013-08-17 07:27:00,
2013-08-17 02:32:00,71.2,66.6,28.61,SE,135,8.0,8.0,85,0.00,,,0.00,meteohub,2013-08-17 07:32:00,
2013-08-17 02:37:00,71.1,66.4,28.61,East,90,7.0,8.0,85,0.00,,,0.00,meteohub,2013-08-17 07:37:00,
2013-08-17 02:43:00,70.9,66.2,28.60,East,90,1.0,8.0,85,0.00,,,0.00,meteohub,2013-08-17 07:43:00,
2013-08-17 02:48:00,71.1,66.4,28.60,East,90,1.0,8.0,85,0.00,,,0.00,meteohub,2013-08-17 07:48:00,
2013-08-17 02:53:00,70.9,66.2,28.60,East,90,4.0,10.0,85,0.00,,,0.00,meteohub,2013-08-17 07:53:00,
2013-08-17 02:58:00,70.7,66.4,28.60,East,90,8.0,10.0,86,0.00,,,0.00,meteohub,2013-08-17 07:58:00,
2013-08-17 03:03:00,70.7,66.4,28.60,SE,135,5.0,11.0,86,0.00,,,0.00,meteohub,2013-08-17 08:03:00,
2013-08-17 03:08:00,70.3,65.7,28.60,NE,45,10.0,11.0,85,0.00,,,0.00,meteohub,2013-08-17 08:08:00,
2013-08-17 03:13:00,70.7,66.4,28.60,East,90,4.0,11.0,86,0.00,,,0.00,meteohub,2013-08-17 08:13:00,
2013-08-17 03:18:00,70.2,65.8,28.60,ENE,68,3.0,10.0,86,0.00,,,0.00,meteohub,2013-08-17 08:18:00,
2013-08-17 03:23:00,70.2,65.8,28.60,East,90,1.0,10.0,86,0.00,,,0.00,meteohub,2013-08-17 08:23:00,
2013-08-17 03:28:00,70.0,65.7,28.60,NE,45,1.0,8.0,86,0.00,,,0.00,meteohub,2013-08-17 08:28:00,
2013-08-17 03:33:00,70.2,65.8,28.60,East,90,6.0,8.0,86,0.00,,,0.00,meteohub,2013-08-17 08:33:00,
2013-08-17 03:38:00,70.0,65.7,28.60,East,90,8.0,11.0,86,0.00,,,0.00,meteohub,2013-08-17 08:38:00,
2013-08-17 03:43:00,70.0,65.7,28.60,East,90,5.0,11.0,86,0.00,,,0.00,meteohub,2013-08-17 08:43:00,
2013-08-17 03:48:00,69.8,65.8,28.61,East,90,4.0,11.0,87,0.00,,,0.00,meteohub,2013-08-17 08:48:00,
2013-08-17 03:53:00,69.8,65.8,28.60,SE,135,1.0,9.0,87,0.00,,,0.00,meteohub,2013-08-17 08:53:00,
2013-08-17 03:58:00,69.8,65.8,28.60,ENE,68,8.0,9.0,87,0.00,,,0.00,meteohub,2013-08-17 08:58:00,
2013-08-17 04:03:00,69.6,65.7,28.61,East,90,5.0,9.0,87,0.00,,,0.00,meteohub,2013-08-17 09:03:00,
2013-08-17 04:08:00,69.4,65.5,28.60,NE,45,1.0,8.0,87,0.00,,,0.00,meteohub,2013-08-17 09:08:00,
2013-08-17 04:13:00,69.3,65.5,28.61,East,90,1.0,8.0,88,0.00,,,0.00,meteohub,2013-08-17 09:13:00,
2013-08-17 04:18:00,69.4,65.7,28.60,ENE,68,1.0,8.0,88,0.00,,,0.00,meteohub,2013-08-17 09:18:00,
2013-08-17 04:23:00,69.3,65.5,28.60,East,90,1.0,2.0,88,0.00,,,0.00,meteohub,2013-08-17 09:23:00,
2013-08-17 04:28:00,69.1,65.7,28.60,East,90,1.0,4.0,89,0.00,,,0.00,meteohub,2013-08-17 09:28:00,
2013-08-17 04:33:00,68.9,65.5,28.60,East,90,6.0,6.0,89,0.00,,,0.00,meteohub,2013-08-17 09:33:00,
2013-08-17 04:38:00,68.9,65.5,28.60,East,90,6.0,8.0,89,0.00,,,0.00,meteohub,2013-08-17 09:38:00,
2013-08-17 04:43:00,68.7,65.3,28.60,SE,135,1.0,9.0,89,0.00,,,0.00,meteohub,2013-08-17 09:43:00,
2013-08-17 04:48:00,68.7,65.3,28.60,East,90,1.0,9.0,89,0.00,,,0.00,meteohub,2013-08-17 09:48:00,
2013-08-17 04:53:00,68.7,65.7,28.60,SE,135,1.0,9.0,90,0.00,,,0.00,meteohub,2013-08-17 09:53:00,
2013-08-17 04:58:00,68.5,65.5,28.60,East,90,2.0,6.0,90,0.00,,,0.00,meteohub,2013-08-17 09:58:00,
2013-08-17 05:03:00,68.5,65.5,28.60,East,90,5.0,6.0,90,0.00,,,0.00,meteohub,2013-08-17 10:03:00,
2013-08-17 05:08:00,68.5,65.5,28.60,East,90,1.0,7.0,90,0.00,,,0.00,meteohub,2013-08-17 10:08:00,
2013-08-17 05:13:00,68.5,65.5,28.60,East,90,7.0,8.0,90,0.00,,,0.00,meteohub,2013-08-17 10:13:00,
2013-08-17 05:18:00,68.2,65.1,28.60,East,90,1.0,9.0,90,0.00,,,0.00,meteohub,2013-08-17 10:18:00,
2013-08-17 05:23:00,68.2,65.1,28.60,SE,135,1.0,9.0,90,0.00,,,0.00,meteohub,2013-08-17 10:23:00,
2013-08-17 05:28:00,68.4,65.3,28.60,East,90,1.0,9.0,90,0.00,,,0.00,meteohub,2013-08-17 10:28:00,
2013-08-17 05:33:00,68.2,65.1,28.60,East,90,8.0,8.0,90,0.00,,,0.00,meteohub,2013-08-17 10:33:00,
2013-08-17 05:38:00,68.2,65.1,28.60,East,90,5.0,8.0,90,0.00,,,0.00,meteohub,2013-08-17 10:38:00,
2013-08-17 05:43:00,68.4,65.3,28.60,East,90,1.0,8.0,90,0.00,,,0.00,meteohub,2013-08-17 10:43:00,
2013-08-17 05:48:00,68.2,65.1,28.60,NE,45,1.0,8.0,90,0.00,,,0.00,meteohub,2013-08-17 10:48:00,
2013-08-17 05:54:00,68.0,64.9,28.60,East,90,1.0,5.0,90,0.00,,,0.00,meteohub,2013-08-17 10:54:00,
2013-08-17 05:59:00,68.2,65.1,28.60,East,90,1.0,2.0,90,0.00,,,0.00,meteohub,2013-08-17 10:59:00,
2013-08-17 06:04:00,67.8,65.1,28.60,East,90,1.0,2.0,91,0.00,,,0.00,meteohub,2013-08-17 11:04:00,
2013-08-17 06:09:00,67.8,65.1,28.60,NE,45,1.0,2.0,91,0.00,,,0.00,meteohub,2013-08-17 11:09:00,
2013-08-17 06:14:00,67.5,64.8,28.60,East,90,0.0,1.0,91,0.00,,,0.00,meteohub,2013-08-17 11:14:00,
2013-08-17 06:19:00,67.6,64.9,28.59,East,90,1.0,1.0,91,0.00,,,0.00,meteohub,2013-08-17 11:19:00,
2013-08-17 06:24:00,67.6,64.9,28.60,SE,135,4.0,4.0,91,0.00,,,0.00,meteohub,2013-08-17 11:24:00,
2013-08-17 06:29:00,67.5,64.8,28.60,NE,45,2.0,6.0,91,0.00,,,0.00,meteohub,2013-08-17 11:29:00,
2013-08-17 06:34:00,67.3,64.6,28.61,East,90,1.0,7.0,91,0.00,,,0.00,meteohub,2013-08-17 11:34:00,
2013-08-17 06:39:00,67.3,64.6,28.61,NE,45,1.0,7.0,91,0.00,,,0.00,meteohub,2013-08-17 11:39:00,
2013-08-17 06:44:00,67.1,64.4,28.61,East,90,1.0,7.0,91,0.00,,,0.00,meteohub,2013-08-17 11:44:00,
2013-08-17 06:49:00,67.3,64.6,28.61,East,90,2.0,2.0,91,0.00,,,0.00,meteohub,2013-08-17 11:49:00,
2013-08-17 06:54:00,67.1,64.4,28.62,East,90,1.0,5.0,91,0.00,,,0.00,meteohub,2013-08-17 11:54:00,
2013-08-17 06:59:00,67.3,64.6,28.62,NE,45,1.0,5.0,91,0.00,,,0.00,meteohub,2013-08-17 11:59:00,
2013-08-17 07:04:00,67.6,64.9,28.62,ENE,68,5.0,5.0,91,0.00,,,0.00,meteohub,2013-08-17 12:04:00,
2013-08-17 07:06:00,67.6,64.9,28.62,North,0,4.0,6.0,91,0.00,,,0.00,meteohub,2013-08-17 12:06:00,
2013-08-17 07:11:00,67.6,64.9,28.62,NE,45,1.0,6.0,91,0.00,,,0.00,meteohub,2013-08-17 12:11:00,
2013-08-17 07:16:00,67.6,64.6,28.62,East,90,1.0,6.0,90,0.00,,,0.00,meteohub,2013-08-17 12:16:00,
2013-08-17 07:21:00,67.6,64.6,28.62,NNE,23,6.0,6.0,90,0.00,,,0.00,meteohub,2013-08-17 12:21:00,
2013-08-17 07:26:00,67.8,64.8,28.62,East,90,1.0,6.0,90,0.00,,,0.00,meteohub,2013-08-17 12:26:00,
2013-08-17 07:31:00,67.8,64.4,28.62,East,90,2.0,6.0,89,0.00,,,0.00,meteohub,2013-08-17 12:31:00,
2013-08-17 07:36:00,67.8,64.4,28.63,NE,45,4.0,6.0,89,0.00,,,0.00,meteohub,2013-08-17 12:36:00,
2013-08-17 07:41:00,68.2,64.8,28.63,East,90,5.0,7.0,89,0.00,,,0.00,meteohub,2013-08-17 12:41:00,
2013-08-17 07:46:00,68.2,64.4,28.62,NE,45,4.0,8.0,88,0.00,,,0.00,meteohub,2013-08-17 12:46:00,
2013-08-17 07:51:00,68.4,64.6,28.63,SE,135,4.0,8.0,88,0.00,,,0.00,meteohub,2013-08-17 12:51:00,
2013-08-17 07:56:00,68.7,64.9,28.63,East,90,1.0,8.0,88,0.00,,,0.00,meteohub,2013-08-17 12:56:00,
2013-08-17 08:01:00,68.9,64.9,28.63,ESE,113,9.0,9.0,87,0.00,,,0.00,meteohub,2013-08-17 13:01:00,
2013-08-17 08:06:00,68.7,64.4,28.63,South,180,5.0,9.0,86,0.00,,,0.00,meteohub,2013-08-17 13:06:00,
2013-08-17 08:11:00,68.7,64.4,28.63,North,0,3.0,9.0,86,0.00,,,0.00,meteohub,2013-08-17 13:11:00,
2013-08-17 08:16:00,68.7,64.4,28.63,SE,135,5.0,9.0,86,0.00,,,0.00,meteohub,2013-08-17 13:16:00,
2013-08-17 08:21:00,69.3,64.6,28.63,NE,45,8.0,8.0,85,0.00,,,0.00,meteohub,2013-08-17 13:21:00,
2013-08-17 08:26:00,69.1,64.4,28.63,East,90,8.0,8.0,85,0.00,,,0.00,meteohub,2013-08-17 13:26:00,
2013-08-17 08:31:00,69.8,64.8,28.62,SE,135,8.0,8.0,84,0.00,,,0.00,meteohub,2013-08-17 13:31:00,
2013-08-17 08:36:00,70.5,65.1,28.62,East,90,8.0,8.0,83,0.00,,,0.00,meteohub,2013-08-17 13:36:00,
2013-08-17 08:42:00,70.7,64.6,28.62,SE,135,6.0,10.0,81,0.00,,,0.00,meteohub,2013-08-17 13:42:00,
2013-08-17 08:47:00,71.2,64.4,28.63,East,90,8.0,11.0,79,0.00,,,0.00,meteohub,2013-08-17 13:47:00,
2013-08-17 08:52:00,71.4,64.6,28.63,East,90,4.0,11.0,79,0.00,,,0.00,meteohub,2013-08-17 13:52:00,
2013-08-17 08:57:00,71.8,64.2,28.63,SE,135,10.0,11.0,77,0.00,,,0.00,meteohub,2013-08-17 13:57:00,
2013-08-17 09:02:00,72.0,64.0,28.63,East,90,9.0,11.0,76,0.00,,,0.00,meteohub,2013-08-17 14:02:00,
2013-08-17 09:07:00,72.3,64.4,28.63,East,90,5.0,13.0,76,0.00,,,0.00,meteohub,2013-08-17 14:07:00,
2013-08-17 09:12:00,72.7,64.2,28.63,South,180,7.0,13.0,75,0.00,,,0.00,meteohub,2013-08-17 14:12:00,
2013-08-17 09:17:00,72.9,64.4,28.64,East,90,2.0,13.0,75,0.00,,,0.00,meteohub,2013-08-17 14:17:00,
2013-08-17 09:22:00,73.2,64.4,28.64,East,90,1.0,9.0,74,0.00,,,0.00,meteohub,2013-08-17 14:22:00,
2013-08-17 09:27:00,74.1,64.6,28.64,SE,135,3.0,9.0,72,0.00,,,0.00,meteohub,2013-08-17 14:27:00,
2013-08-17 09:32:00,74.7,64.6,28.64,East,90,1.0,9.0,71,0.00,,,0.00,meteohub,2013-08-17 14:32:00,
2013-08-17 09:37:00,74.8,64.8,28.64,East,90,4.0,4.0,71,0.00,,,0.00,meteohub,2013-08-17 14:37:00,
2013-08-17 09:42:00,75.6,64.2,28.64,ENE,68,4.0,4.0,68,0.00,,,0.00,meteohub,2013-08-17 14:42:00,
2013-08-17 09:47:00,75.7,64.4,28.64,ESE,113,1.0,6.0,68,0.00,,,0.00,meteohub,2013-08-17 14:47:00,
2013-08-17 09:52:00,76.5,64.8,28.64,NE,45,1.0,6.0,67,0.00,,,0.00,meteohub,2013-08-17 14:52:00,
2013-08-17 09:57:00,76.5,64.2,28.64,NE,45,2.0,6.0,66,0.00,,,0.00,meteohub,2013-08-17 14:57:00,
2013-08-17 10:02:00,76.6,64.4,28.63,NE,45,7.0,8.0,66,0.00,,,0.00,meteohub,2013-08-17 15:02:00,
2013-08-17 10:07:00,77.0,64.4,28.63,SE,135,2.0,8.0,65,0.00,,,0.00,meteohub,2013-08-17 15:07:00,
2013-08-17 10:12:00,77.2,64.0,28.63,SW,225,4.0,9.0,64,0.00,,,0.00,meteohub,2013-08-17 15:12:00,
2013-08-17 10:17:00,77.5,64.8,28.64,SE,135,2.0,9.0,65,0.00,,,0.00,meteohub,2013-08-17 15:17:00,
2013-08-17 10:22:00,77.9,64.2,28.64,East,90,5.0,9.0,63,0.00,,,0.00,meteohub,2013-08-17 15:22:00,
2013-08-17 10:27:00,78.4,63.9,28.63,SE,135,5.0,9.0,61,0.00,,,0.00,meteohub,2013-08-17 15:27:00,
2013-08-17 10:32:00,78.6,64.0,28.63,South,180,6.0,8.0,61,0.00,,,0.00,meteohub,2013-08-17 15:32:00,
2013-08-17 10:37:00,78.6,64.6,28.64,East,90,1.0,8.0,62,0.00,,,0.00,meteohub,2013-08-17 15:37:00,
2013-08-17 10:42:00,79.3,63.7,28.64,SSE,158,8.0,8.0,59,0.00,,,0.00,meteohub,2013-08-17 15:42:00,
2013-08-17 10:47:00,79.2,64.6,28.64,SE,135,4.0,8.0,61,0.00,,,0.00,meteohub,2013-08-17 15:47:00,
2013-08-17 10:52:00,79.3,64.8,28.64,East,90,7.0,8.0,61,0.00,,,0.00,meteohub,2013-08-17 15:52:00,
2013-08-17 10:57:00,79.3,64.2,28.64,South,180,7.0,8.0,60,0.00,,,0.00,meteohub,2013-08-17 15:57:00,
2013-08-17 11:02:00,79.5,64.9,28.64,SE,135,1.0,8.0,61,0.00,,,0.00,meteohub,2013-08-17 16:02:00,
2013-08-17 11:07:00,79.2,64.0,28.64,South,180,5.0,8.0,60,0.00,,,0.00,meteohub,2013-08-17 16:07:00,
2013-08-17 11:12:00,79.2,64.0,28.64,South,180,4.0,8.0,60,0.00,,,0.00,meteohub,2013-08-17 16:12:00,
2013-08-17 11:17:00,79.7,64.0,28.64,SE,135,5.0,8.0,59,0.00,,,0.00,meteohub,2013-08-17 16:17:00,
2013-08-17 11:22:00,79.5,63.9,28.63,South,180,8.0,9.0,59,0.00,,,0.00,meteohub,2013-08-17 16:22:00,
2013-08-17 11:27:00,79.7,64.0,28.64,SE,135,6.0,9.0,59,0.00,,,0.00,meteohub,2013-08-17 16:27:00,
2013-08-17 11:32:00,80.4,64.8,28.63,East,90,4.0,9.0,59,0.00,,,0.00,meteohub,2013-08-17 16:32:00,
2013-08-17 11:37:00,80.8,64.6,28.64,NW,315,3.0,8.0,58,0.00,,,0.00,meteohub,2013-08-17 16:37:00,
2013-08-17 11:42:00,81.5,64.2,28.64,ESE,113,5.0,6.0,56,0.00,,,0.00,meteohub,2013-08-17 16:42:00,
2013-08-17 11:47:00,81.1,64.4,28.63,NE,45,5.0,6.0,57,0.00,,,0.00,meteohub,2013-08-17 16:47:00,
2013-08-17 11:52:00,81.9,65.7,28.62,East,90,2.0,5.0,58,0.00,,,0.00,meteohub,2013-08-17 16:52:00,
2013-08-17 11:57:00,82.4,65.1,28.61,SE,135,6.0,7.0,56,0.00,,,0.00,meteohub,2013-08-17 16:57:00,
2013-08-17 12:02:00,83.1,65.8,28.61,NE,45,4.0,7.0,56,0.00,,,0.00,meteohub,2013-08-17 17:02:00,
2013-08-17 12:07:00,83.7,65.3,28.61,South,180,2.0,7.0,54,0.00,,,0.00,meteohub,2013-08-17 17:07:00,
2013-08-17 12:12:00,84.2,65.7,28.60,East,90,4.0,7.0,54,0.00,,,0.00,meteohub,2013-08-17 17:12:00,
2013-08-17 12:17:00,84.2,64.6,28.60,SE,135,7.0,7.0,52,0.00,,,0.00,meteohub,2013-08-17 17:17:00,
2013-08-17 12:22:00,84.4,65.3,28.59,East,90,1.0,7.0,53,0.00,,,0.00,meteohub,2013-08-17 17:22:00,
2013-08-17 12:27:00,84.0,64.6,28.59,SW,225,8.0,8.0,52,0.00,,,0.00,meteohub,2013-08-17 17:27:00,
2013-08-17 12:32:00,83.8,64.9,28.59,SE,135,5.0,9.0,53,0.00,,,0.00,meteohub,2013-08-17 17:32:00,
2013-08-17 12:37:00,83.8,64.9,28.58,SSW,203,3.0,10.0,53,0.00,,,0.00,meteohub,2013-08-17 17:37:00,
2013-08-17 12:42:00,84.2,64.6,28.58,SW,225,8.0,10.0,52,0.00,,,0.00,meteohub,2013-08-17 17:42:00,
2013-08-17 12:47:00,84.0,64.6,28.58,SE,135,10.0,10.0,52,0.00,,,0.00,meteohub,2013-08-17 17:47:00,
2013-08-17 12:52:00,84.4,65.8,28.58,SE,135,4.0,10.0,54,0.00,,,0.00,meteohub,2013-08-17 17:52:00,
2013-08-17 12:57:00,85.1,65.5,28.58,South,180,4.0,10.0,52,0.00,,,0.00,meteohub,2013-08-17 17:57:00,
2013-08-17 13:02:00,85.6,64.9,28.58,SE,135,4.0,10.0,50,0.00,,,0.00,meteohub,2013-08-17 18:02:00,
2013-08-17 13:07:00,86.2,65.3,28.58,East,90,6.0,8.0,50,0.00,,,0.00,meteohub,2013-08-17 18:07:00,
2013-08-17 13:12:00,86.0,65.1,28.58,South,180,3.0,6.0,50,0.00,,,0.00,meteohub,2013-08-17 18:12:00,
2013-08-17 13:17:00,86.5,65.7,28.58,SE,135,2.0,7.0,50,0.00,,,0.00,meteohub,2013-08-17 18:17:00,
2013-08-17 13:22:00,86.4,65.5,28.58,NE,45,1.0,7.0,50,0.00,,,0.00,meteohub,2013-08-17 18:22:00,
2013-08-17 13:27:00,87.1,66.2,28.58,SW,225,2.0,7.0,50,0.00,,,0.00,meteohub,2013-08-17 18:27:00,
2013-08-17 13:32:00,87.1,65.7,28.58,East,90,1.0,5.0,49,0.00,,,0.00,meteohub,2013-08-17 18:32:00,
2013-08-17 13:37:00,86.9,66.0,28.58,East,90,1.0,5.0,50,0.00,,,0.00,meteohub,2013-08-17 18:37:00,
2013-08-17 13:42:00,87.4,64.8,28.58,SE,135,8.0,8.0,47,0.00,,,0.00,meteohub,2013-08-17 18:42:00,
2013-08-17 13:47:00,87.3,65.1,28.58,North,0,4.0,8.0,48,0.00,,,0.00,meteohub,2013-08-17 18:47:00,
2013-08-17 13:52:00,88.0,65.3,28.58,East,90,2.0,8.0,47,0.00,,,0.00,meteohub,2013-08-17 18:52:00,
2013-08-17 13:57:00,87.6,63.7,28.58,South,180,6.0,8.0,45,0.00,,,0.00,meteohub,2013-08-17 18:57:00,
2013-08-17 14:02:00,87.3,64.0,28.58,East,90,8.0,8.0,46,0.00,,,0.00,meteohub,2013-08-17 19:02:00,
2013-08-17 14:07:00,87.1,64.9,28.57,NE,45,2.0,8.0,48,0.00,,,0.00,meteohub,2013-08-17 19:07:00,
2013-08-17 14:12:00,87.4,64.8,28.57,SE,135,4.0,8.0,47,0.00,,,0.00,meteohub,2013-08-17 19:12:00,
2013-08-17 14:17:00,87.4,64.0,28.57,SE,135,6.0,8.0,46,0.00,,,0.00,meteohub,2013-08-17 19:17:00,
2013-08-17 14:22:00,87.4,64.0,28.56,SE,135,1.0,6.0,46,0.00,,,0.00,meteohub,2013-08-17 19:22:00,
2013-08-17 14:27:00,87.4,65.3,28.56,East,90,1.0,6.0,48,0.00,,,0.00,meteohub,2013-08-17 19:27:00,
2013-08-17 14:32:00,88.2,64.8,28.56,NE,45,1.0,6.0,46,0.00,,,0.00,meteohub,2013-08-17 19:32:00,
2013-08-17 14:37:00,88.5,64.4,28.56,East,90,5.0,5.0,45,0.00,,,0.00,meteohub,2013-08-17 19:37:00,
2013-08-17 14:42:00,89.4,64.0,28.56,East,90,11.0,11.0,43,0.00,,,0.00,meteohub,2013-08-17 19:42:00,
2013-08-17 14:47:00,90.1,63.9,28.56,SE,135,6.0,11.0,42,0.00,,,0.00,meteohub,2013-08-17 19:47:00,
2013-08-17 14:52:00,90.1,62.6,28.55,SE,135,12.0,12.0,40,0.00,,,0.00,meteohub,2013-08-17 19:52:00,
2013-08-17 14:57:00,89.1,63.0,28.56,East,90,1.0,12.0,42,0.00,,,0.00,meteohub,2013-08-17 19:57:00,
2013-08-17 15:02:00,88.9,64.2,28.55,SE,135,1.0,12.0,44,0.00,,,0.00,meteohub,2013-08-17 20:02:00,
2013-08-17 15:07:00,88.5,63.1,28.54,South,180,2.0,12.0,43,0.00,,,0.00,meteohub,2013-08-17 20:07:00,
2013-08-17 15:12:00,88.7,63.3,28.55,East,90,4.0,8.0,43,0.00,,,0.00,meteohub,2013-08-17 20:12:00,
2013-08-17 15:17:00,88.3,63.0,28.55,East,90,3.0,10.0,43,0.00,,,0.00,meteohub,2013-08-17 20:17:00,
2013-08-17 15:22:00,88.3,63.0,28.54,North,0,7.0,10.0,43,0.00,,,0.00,meteohub,2013-08-17 20:22:00,
2013-08-17 15:27:00,89.1,63.0,28.54,North,0,6.0,10.0,42,0.00,,,0.00,meteohub,2013-08-17 20:27:00,
2013-08-17 15:32:00,89.4,62.6,28.54,South,180,8.0,8.0,41,0.00,,,0.00,meteohub,2013-08-17 20:32:00,
2013-08-17 15:37:00,88.9,61.5,28.54,NE,45,7.0,8.0,40,0.00,,,0.00,meteohub,2013-08-17 20:37:00,
2013-08-17 15:42:00,89.6,63.5,28.53,East,90,1.0,13.0,42,0.00,,,0.00,meteohub,2013-08-17 20:42:00,
2013-08-17 15:47:00,89.8,63.0,28.53,SE,135,8.0,13.0,41,0.00,,,0.00,meteohub,2013-08-17 20:47:00,
2013-08-17 15:52:00,89.4,62.6,28.53,NE,45,1.0,13.0,41,0.00,,,0.00,meteohub,2013-08-17 20:52:00,
2013-08-17 15:57:00,89.8,63.0,28.53,East,90,2.0,12.0,41,0.00,,,0.00,meteohub,2013-08-17 20:57:00,
2013-08-17 16:02:00,90.3,64.0,28.53,East,90,2.0,12.0,42,0.00,,,0.00,meteohub,2013-08-17 21:02:00,
2013-08-17 16:07:00,90.5,62.2,28.53,East,90,8.0,8.0,39,0.00,,,0.00,meteohub,2013-08-17 21:07:00,
2013-08-17 16:13:00,89.8,63.0,28.53,East,90,1.0,12.0,41,0.00,,,0.00,meteohub,2013-08-17 21:13:00,
2013-08-17 16:18:00,90.3,62.1,28.53,East,90,11.0,12.0,39,0.00,,,0.00,meteohub,2013-08-17 21:18:00,
2013-08-17 16:23:00,89.8,62.2,28.53,East,90,8.0,12.0,40,0.00,,,0.00,meteohub,2013-08-17 21:23:00,
2013-08-17 16:28:00,90.0,63.1,28.53,North,0,1.0,11.0,41,0.00,,,0.00,meteohub,2013-08-17 21:28:00,
2013-08-17 16:33:00,90.1,62.6,28.53,SE,135,2.0,11.0,40,0.00,,,0.00,meteohub,2013-08-17 21:33:00,
2013-08-17 16:38:00,89.1,62.2,28.53,East,90,1.0,10.0,41,0.00,,,0.00,meteohub,2013-08-17 21:38:00,
2013-08-17 16:43:00,88.9,62.8,28.53,East,90,8.0,8.0,42,0.00,,,0.00,meteohub,2013-08-17 21:43:00,
2013-08-17 16:48:00,88.7,62.1,28.53,East,90,4.0,8.0,41,0.00,,,0.00,meteohub,2013-08-17 21:48:00,
2013-08-17 16:53:00,89.1,63.0,28.53,East,90,5.0,8.0,42,0.00,,,0.00,meteohub,2013-08-17 21:53:00,
2013-08-17 16:58:00,89.2,63.1,28.53,East,90,7.0,8.0,42,0.00,,,0.00,meteohub,2013-08-17 21:58:00,
2013-08-17 17:03:00,89.2,63.1,28.53,East,90,5.0,7.0,42,0.00,,,0.00,meteohub,2013-08-17 22:03:00,
2013-08-17 17:08:00,89.4,61.9,28.52,SE,135,4.0,7.0,40,0.00,,,0.00,meteohub,2013-08-17 22:08:00,
2013-08-17 17:13:00,89.2,61.7,28.52,NE,45,9.0,10.0,40,0.00,,,0.00,meteohub,2013-08-17 22:13:00,
2013-08-17 17:18:00,89.2,62.4,28.52,NE,45,3.0,10.0,41,0.00,,,0.00,meteohub,2013-08-17 22:18:00,
2013-08-17 17:23:00,89.4,61.9,28.52,East,90,2.0,10.0,40,0.00,,,0.00,meteohub,2013-08-17 22:23:00,
2013-08-17 17:28:00,88.2,61.5,28.52,East,90,1.0,9.0,41,0.00,,,0.00,meteohub,2013-08-17 22:28:00,
2013-08-17 17:33:00,88.2,62.2,28.52,East,90,8.0,11.0,42,0.00,,,0.00,meteohub,2013-08-17 22:33:00,
2013-08-17 17:38:00,88.5,62.4,28.52,East,90,8.0,11.0,42,0.00,,,0.00,meteohub,2013-08-17 22:38:00,
2013-08-17 17:43:00,88.3,61.7,28.52,East,90,8.0,12.0,41,0.00,,,0.00,meteohub,2013-08-17 22:43:00,
2013-08-17 17:48:00,88.2,62.2,28.52,East,90,4.0,12.0,42,0.00,,,0.00,meteohub,2013-08-17 22:48:00,
2013-08-17 17:53:00,88.9,61.5,28.52,NE,45,2.0,12.0,40,0.00,,,0.00,meteohub,2013-08-17 22:53:00,
2013-08-17 17:58:00,88.5,62.4,28.51,SE,135,5.0,11.0,42,0.00,,,0.00,meteohub,2013-08-17 22:58:00,
2013-08-17 18:03:00,88.3,62.4,28.51,East,90,1.0,10.0,42,0.00,,,0.00,meteohub,2013-08-17 23:03:00,
2013-08-17 18:08:00,88.5,61.9,28.52,East,90,8.0,12.0,41,0.00,,,0.00,meteohub,2013-08-17 23:08:00,
2013-08-17 18:13:00,88.0,62.1,28.52,East,90,6.0,12.0,42,0.00,,,0.00,meteohub,2013-08-17 23:13:00,
2013-08-17 18:18:00,88.3,62.4,28.51,East,90,8.0,12.0,42,0.00,,,0.00,meteohub,2013-08-17 23:18:00,
2013-08-17 18:23:00,88.2,62.2,28.52,East,90,1.0,10.0,42,0.00,,,0.00,meteohub,2013-08-17 23:23:00,
2013-08-17 18:28:00,88.2,62.2,28.52,NE,45,3.0,10.0,42,0.00,,,0.00,meteohub,2013-08-17 23:28:00,
2013-08-17 18:33:00,88.0,62.6,28.51,East,90,1.0,10.0,43,0.00,,,0.00,meteohub,2013-08-17 23:33:00,
2013-08-17 18:38:00,87.4,61.5,28.51,East,90,4.0,10.0,42,0.00,,,0.00,meteohub,2013-08-17 23:38:00,
2013-08-17 18:43:00,87.1,61.9,28.51,SE,135,5.0,11.0,43,0.00,,,0.00,meteohub,2013-08-17 23:43:00,
2013-08-17 18:48:00,87.3,62.6,28.51,East,90,6.0,11.0,44,0.00,,,0.00,meteohub,2013-08-17 23:48:00,
2013-08-17 18:53:00,86.9,62.4,28.51,NE,45,9.0,11.0,44,0.00,,,0.00,meteohub,2013-08-17 23:53:00,
2013-08-17 18:58:00,86.5,62.6,28.51,NE,45,4.0,9.0,45,0.00,,,0.00,meteohub,2013-08-17 23:58:00,
2013-08-17 19:03:00,86.0,62.8,28.51,NE,45,8.0,12.0,46,0.00,,,0.00,meteohub,2013-08-18 00:03:00,
2013-08-17 19:08:00,85.6,62.4,28.51,East,90,7.0,12.0,46,0.00,,,0.00,meteohub,2013-08-18 00:08:00,
2013-08-17 19:14:00,85.6,63.1,28.51,East,90,1.0,12.0,47,0.00,,,0.00,meteohub,2013-08-18 00:14:00,
2013-08-17 19:19:00,85.3,62.8,28.51,East,90,9.0,11.0,47,0.00,,,0.00,meteohub,2013-08-18 00:19:00,
2013-08-17 19:24:00,84.6,62.1,28.51,East,90,3.0,15.0,47,0.00,,,0.00,meteohub,2013-08-18 00:24:00,
2013-08-17 19:29:00,84.0,61.7,28.51,NE,45,9.0,16.0,47,0.00,,,0.00,meteohub,2013-08-18 00:29:00,
2013-08-17 19:34:00,83.8,62.1,28.51,East,90,7.0,16.0,48,0.00,,,0.00,meteohub,2013-08-18 00:34:00,
2013-08-17 19:39:00,83.5,61.7,28.51,East,90,2.0,16.0,48,0.00,,,0.00,meteohub,2013-08-18 00:39:00,
2013-08-17 19:44:00,83.3,61.5,28.51,NW,315,1.0,12.0,48,0.00,,,0.00,meteohub,2013-08-18 00:44:00,
2013-08-17 19:49:00,82.9,61.2,28.51,East,90,8.0,12.0,48,0.00,,,0.00,meteohub,2013-08-18 00:49:00,
2013-08-17 19:54:00,82.9,61.2,28.52,NE,45,9.0,12.0,48,0.00,,,0.00,meteohub,2013-08-18 00:54:00,
2013-08-17 19:59:00,82.6,61.0,28.52,NE,45,5.0,12.0,48,0.00,,,0.00,meteohub,2013-08-18 00:59:00,
2013-08-17 20:04:00,82.2,61.2,28.52,SE,135,12.0,15.0,49,0.00,,,0.00,meteohub,2013-08-18 01:04:00,
2013-08-17 20:09:00,82.0,61.5,28.52,NE,45,11.0,15.0,50,0.00,,,0.00,meteohub,2013-08-18 01:09:00,
2013-08-17 20:14:00,81.9,61.3,28.52,East,90,8.0,15.0,50,0.00,,,0.00,meteohub,2013-08-18 01:14:00,
2013-08-17 20:19:00,81.5,61.0,28.52,East,90,2.0,12.0,50,0.00,,,0.00,meteohub,2013-08-18 01:19:00,
2013-08-17 20:24:00,81.3,61.0,28.52,East,90,3.0,11.0,50,0.00,,,0.00,meteohub,2013-08-18 01:24:00,
2013-08-17 20:29:00,81.0,61.2,28.52,East,90,12.0,12.0,51,0.00,,,0.00,meteohub,2013-08-18 01:29:00,
2013-08-17 20:34:00,81.0,61.2,28.52,East,90,8.0,12.0,51,0.00,,,0.00,meteohub,2013-08-18 01:34:00,
2013-08-17 20:39:00,80.8,61.5,28.52,NE,45,3.0,12.0,52,0.00,,,0.00,meteohub,2013-08-18 01:39:00,
2013-08-17 20:44:00,80.6,61.9,28.53,East,90,9.0,12.0,53,0.00,,,0.00,meteohub,2013-08-18 01:44:00,
2013-08-17 20:49:00,80.4,62.2,28.53,SE,135,9.0,11.0,54,0.00,,,0.00,meteohub,2013-08-18 01:49:00,
2013-08-17 20:54:00,80.2,62.1,28.53,NE,45,1.0,11.0,54,0.00,,,0.00,meteohub,2013-08-18 01:54:00,
2013-08-17 20:59:00,80.2,62.6,28.53,SE,135,4.0,11.0,55,0.00,,,0.00,meteohub,2013-08-18 01:59:00,
2013-08-17 21:04:00,80.4,62.8,28.53,East,90,9.0,11.0,55,0.00,,,0.00,meteohub,2013-08-18 02:04:00,
2013-08-17 21:09:00,80.1,62.4,28.53,East,90,10.0,10.0,55,0.00,,,0.00,meteohub,2013-08-18 02:09:00,
2013-08-17 21:14:00,80.1,63.0,28.53,East,90,9.0,10.0,56,0.00,,,0.00,meteohub,2013-08-18 02:14:00,
2013-08-17 21:19:00,80.1,63.0,28.53,SE,135,1.0,10.0,56,0.00,,,0.00,meteohub,2013-08-18 02:19:00,
2013-08-17 21:24:00,79.7,62.6,28.53,SSE,158,9.0,12.0,56,0.00,,,0.00,meteohub,2013-08-18 02:24:00,
2013-08-17 21:29:00,79.7,62.6,28.54,ESE,113,4.0,12.0,56,0.00,,,0.00,meteohub,2013-08-18 02:29:00,
2013-08-17 21:34:00,79.5,63.0,28.53,East,90,1.0,12.0,57,0.00,,,0.00,meteohub,2013-08-18 02:34:00,
2013-08-17 21:39:00,79.2,62.6,28.54,East,90,8.0,10.0,57,0.00,,,0.00,meteohub,2013-08-18 02:39:00,
2013-08-17 21:44:00,79.2,62.6,28.55,SE,135,2.0,8.0,57,0.00,,,0.00,meteohub,2013-08-18 02:44:00,
2013-08-17 21:49:00,79.0,63.0,28.55,East,90,4.0,8.0,58,0.00,,,0.00,meteohub,2013-08-18 02:49:00,
2013-08-17 21:54:00,79.0,63.0,28.55,SE,135,1.0,8.0,58,0.00,,,0.00,meteohub,2013-08-18 02:54:00,
2013-08-17 21:59:00,78.8,63.7,28.55,East,90,4.0,8.0,60,0.00,,,0.00,meteohub,2013-08-18 02:59:00,
2013-08-17 22:04:00,78.4,63.9,28.55,East,90,1.0,7.0,61,0.00,,,0.00,meteohub,2013-08-18 03:04:00,
2013-08-17 22:09:00,78.3,64.2,28.56,North,0,6.0,6.0,62,0.00,,,0.00,meteohub,2013-08-18 03:09:00,
2013-08-17 22:14:00,77.9,64.8,28.56,East,90,5.0,5.0,64,0.00,,,0.00,meteohub,2013-08-18 03:14:00,
2013-08-17 22:19:00,77.7,64.6,28.56,SE,135,1.0,6.0,64,0.00,,,0.00,meteohub,2013-08-18 03:19:00,
2013-08-17 22:24:00,77.7,64.9,28.56,NE,45,5.0,6.0,65,0.00,,,0.00,meteohub,2013-08-18 03:24:00,
2013-08-17 22:29:00,77.5,65.3,28.56,East,90,4.0,5.0,66,0.00,,,0.00,meteohub,2013-08-18 03:29:00,
2013-08-17 22:34:00,77.4,65.1,28.56,NE,45,1.0,5.0,66,0.00,,,0.00,meteohub,2013-08-18 03:34:00,
2013-08-17 22:39:00,77.4,65.5,28.56,East,90,10.0,10.0,67,0.00,,,0.00,meteohub,2013-08-18 03:39:00,
2013-08-17 22:44:00,77.2,65.3,28.56,East,90,2.0,10.0,67,0.00,,,0.00,meteohub,2013-08-18 03:44:00,
2013-08-17 22:49:00,77.0,65.7,28.56,NE,45,4.0,10.0,68,0.00,,,0.00,meteohub,2013-08-18 03:49:00,
2013-08-17 22:54:00,76.8,65.5,28.56,NE,45,6.0,10.0,68,0.00,,,0.00,meteohub,2013-08-18 03:54:00,
2013-08-17 22:59:00,76.3,64.9,28.56,East,90,4.0,8.0,68,0.00,,,0.00,meteohub,2013-08-18 03:59:00,
2013-08-17 23:01:00,76.3,64.9,28.56,NE,45,4.0,9.0,68,0.00,,,0.00,meteohub,2013-08-18 04:01:00,
2013-08-17 23:02:00,76.5,65.5,28.56,East,90,1.0,9.0,69,0.00,,,0.00,meteohub,2013-08-18 04:02:00,
2013-08-17 23:07:00,76.1,65.1,28.56,SE,135,2.0,9.0,69,0.00,,,0.00,meteohub,2013-08-18 04:07:00,
2013-08-17 23:11:00,75.9,64.9,28.56,East,90,7.0,9.0,69,0.00,,,0.00,meteohub,2013-08-18 04:11:00,
2013-08-17 23:16:00,75.6,64.8,28.56,NW,315,11.0,15.0,69,0.00,,,0.00,meteohub,2013-08-18 04:16:00,
2013-08-17 23:21:00,75.7,64.8,28.56,East,90,8.0,15.0,69,0.00,,,0.00,meteohub,2013-08-18 04:21:00,
2013-08-17 23:26:00,75.6,64.8,28.56,East,90,10.0,15.0,69,0.00,,,0.00,meteohub,2013-08-18 04:26:00,
2013-08-17 23:32:00,75.6,64.8,28.56,East,90,4.0,11.0,69,0.00,,,0.00,meteohub,2013-08-18 04:32:00,
2013-08-17 23:37:00,75.4,64.6,28.56,SE,135,9.0,10.0,69,0.00,,,0.00,meteohub,2013-08-18 04:37:00,
2013-08-17 23:42:00,75.4,64.6,28.56,NE,45,4.0,10.0,69,0.00,,,0.00,meteohub,2013-08-18 04:42:00,
2013-08-17 23:47:00,75.2,64.4,28.56,NE,45,5.0,11.0,69,0.00,,,0.00,meteohub,2013-08-18 04:47:00,
2013-08-17 23:52:00,75.4,64.6,28.56,NE,45,5.0,11.0,69,0.00,,,0.00,meteohub,2013-08-18 04:52:00,
2013-08-17 23:57:00,75.2,64.4,28.56,NE,45,3.0,12.0,69,0.00,,,0.00,meteohub,2013-08-18 04:57:00,